K&a Sp — 3FVZ3 — position and weather

sailwx.info

Track history (hours):
 
Tides and Currents Weather Stations Pressure Air Temp Water Temp Dewpoint Dewpoint Depression Visibility Wind Speed Wind Dir Waves Ship Positions

K&a Sp

Last reported at 2016-Jun-17 07:11 UTC. Time now 2016-Jun-29 00:13 UTC.
Position S 09°58' E 147°21'.
Warning: this ship's position is 11 days out of date.

Length 177 m; draft 7.6 m.

Type: Cargo ship. MMSI: 354085000.

Date/timePositionNaut miles runAvg speedWind from/ knotsBaromVisibWave heightAir tempDewpointWater temp
2016-Jun-17 07:11S 09°58' E 147°21'710.4
2016-Jun-17 06:32S 09°52' E 147°17'1110.8
2016-Jun-17 05:33S 09°43' E 147°12'1110.6
2016-Jun-17 04:34S 09°34' E 147°07'6 6.0
2016-Jun-17 03:34S 09°28' E 147°08'0 0.1
2016-Jun-17 02:31S 09°28' E 147°08'0 0.0
2016-Jun-17 01:28S 09°28' E 147°08'0 0.1
2016-Jun-17 00:28S 09°28' E 147°08'0 0.0
2016-Jun-16 23:31S 09°28' E 147°08'0 0.1
2016-Jun-16 22:31S 09°28' E 147°08'0 0.1
2016-Jun-16 21:31S 09°28' E 147°08'0 0.0
2016-Jun-16 20:16S 09°28' E 147°08'0 0.0
2016-Jun-16 19:28S 09°28' E 147°08'0 0.1
2016-Jun-16 18:31S 09°28' E 147°08'0 0.0
2016-Jun-16 17:31S 09°28' E 147°08'0 0.0
2016-Jun-16 16:28S 09°28' E 147°08'0 0.0
2016-Jun-16 15:31S 09°28' E 147°08'0 0.0
2016-Jun-16 14:31S 09°28' E 147°08'0 0.0
2016-Jun-16 13:31S 09°28' E 147°08'0 0.0
2016-Jun-16 12:31S 09°28' E 147°08'0 0.0
2016-Jun-16 11:31S 09°28' E 147°08'0 0.0
2016-Jun-16 10:31S 09°28' E 147°08'0 0.0
2016-Jun-16 09:31S 09°28' E 147°08'0 0.0
2016-Jun-16 08:31S 09°28' E 147°08'0 0.0
2016-Jun-16 07:31S 09°28' E 147°08'0 0.0
2016-Jun-16 06:31S 09°28' E 147°08'0 0.0
2016-Jun-16 05:31S 09°28' E 147°08'0 0.0
2016-Jun-16 04:31S 09°28' E 147°08'0 0.0
2016-Jun-16 03:31S 09°28' E 147°08'0 0.1
2016-Jun-16 02:28S 09°28' E 147°08'0 0.1
2016-Jun-16 01:31S 09°28' E 147°08'0 0.0
2016-Jun-16 00:28S 09°28' E 147°08'0 0.0
2016-Jun-15 23:25S 09°28' E 147°08'0 0.0
2016-Jun-15 22:31S 09°28' E 147°08'0 0.0
2016-Jun-15 21:31S 09°28' E 147°08'1 0.7
2016-Jun-15 20:34S 09°28' E 147°08'2 2.3
2016-Jun-15 19:33S 09°30' E 147°09'0 0.0
2016-Jun-15 17:30S 09°30' E 147°09'0 0.0
2016-Jun-15 16:33S 09°30' E 147°09'0 0.0
2016-Jun-15 15:33S 09°30' E 147°09'0 0.0
2016-Jun-15 14:33S 09°30' E 147°09'0 0.0
2016-Jun-15 13:33S 09°30' E 147°09'0 0.0
2016-Jun-15 12:33S 09°30' E 147°09'0 0.2
2016-Jun-15 11:33S 09°30' E 147°09'6 5.9
2016-Jun-15 10:33S 09°34' E 147°05'10 9.8
2016-Jun-15 09:33S 09°34' E 146°55'1010.0
2016-Jun-15 08:33S 09°33' E 146°45'  
Track history (hours):
 
Tides and Currents Weather Stations Pressure Air Temp Water Temp Dewpoint Dewpoint Depression Visibility Wind Speed Wind Dir Waves Ship Positions

K&a Sp

Last reported at 2016-Jun-17 07:11 UTC. Time now 2016-Jun-29 00:13 UTC.
Position S 09°58' E 147°21'.
Warning: this ship's position is 11 days out of date.

Length 177 m; draft 7.6 m.

Type: Cargo ship. MMSI: 354085000.

Date/timePositionNaut miles runAvg speedWind from/ knotsBaromVisibWave heightAir tempDewpointWater temp
2016-Jun-17 07:11S 09°58' E 147°21'710.4
2016-Jun-17 06:32S 09°52' E 147°17'1110.8
2016-Jun-17 05:33S 09°43' E 147°12'1110.6
2016-Jun-17 04:34S 09°34' E 147°07'6 6.0
2016-Jun-17 03:34S 09°28' E 147°08'0 0.1
2016-Jun-17 02:31S 09°28' E 147°08'0 0.0
2016-Jun-17 01:28S 09°28' E 147°08'0 0.1
2016-Jun-17 00:28S 09°28' E 147°08'0 0.0
2016-Jun-16 23:31S 09°28' E 147°08'0 0.1
2016-Jun-16 22:31S 09°28' E 147°08'0 0.1
2016-Jun-16 21:31S 09°28' E 147°08'0 0.0
2016-Jun-16 20:16S 09°28' E 147°08'0 0.0
2016-Jun-16 19:28S 09°28' E 147°08'0 0.1
2016-Jun-16 18:31S 09°28' E 147°08'0 0.0
2016-Jun-16 17:31S 09°28' E 147°08'0 0.0
2016-Jun-16 16:28S 09°28' E 147°08'0 0.0
2016-Jun-16 15:31S 09°28' E 147°08'0 0.0
2016-Jun-16 14:31S 09°28' E 147°08'0 0.0
2016-Jun-16 13:31S 09°28' E 147°08'0 0.0
2016-Jun-16 12:31S 09°28' E 147°08'0 0.0
2016-Jun-16 11:31S 09°28' E 147°08'0 0.0
2016-Jun-16 10:31S 09°28' E 147°08'0 0.0
2016-Jun-16 09:31S 09°28' E 147°08'0 0.0
2016-Jun-16 08:31S 09°28' E 147°08'0 0.0
2016-Jun-16 07:31S 09°28' E 147°08'0 0.0
2016-Jun-16 06:31S 09°28' E 147°08'0 0.0
2016-Jun-16 05:31S 09°28' E 147°08'0 0.0
2016-Jun-16 04:31S 09°28' E 147°08'0 0.0
2016-Jun-16 03:31S 09°28' E 147°08'0 0.1
2016-Jun-16 02:28S 09°28' E 147°08'0 0.1
2016-Jun-16 01:31S 09°28' E 147°08'0 0.0
2016-Jun-16 00:28S 09°28' E 147°08'0 0.0
2016-Jun-15 23:25S 09°28' E 147°08'0 0.0
2016-Jun-15 22:31S 09°28' E 147°08'0 0.0
2016-Jun-15 21:31S 09°28' E 147°08'1 0.7
2016-Jun-15 20:34S 09°28' E 147°08'2 2.3
2016-Jun-15 19:33S 09°30' E 147°09'0 0.0
2016-Jun-15 17:30S 09°30' E 147°09'0 0.0
2016-Jun-15 16:33S 09°30' E 147°09'0 0.0
2016-Jun-15 15:33S 09°30' E 147°09'0 0.0
2016-Jun-15 14:33S 09°30' E 147°09'0 0.0
2016-Jun-15 13:33S 09°30' E 147°09'0 0.0
2016-Jun-15 12:33S 09°30' E 147°09'0 0.2
2016-Jun-15 11:33S 09°30' E 147°09'6 5.9
2016-Jun-15 10:33S 09°34' E 147°05'10 9.8
2016-Jun-15 09:33S 09°34' E 146°55'1010.0
2016-Jun-15 08:33S 09°33' E 146°45'  

Dump ship's entire track history